VLG2BB LIRF-LEBL
Flight info
| Callsign | VLG2BB |
|---|---|
| Flight time | 1h 35m |
| Altitude | 37000 |
| Route | ESINO DCT ABIDU DCT EPIKU DCT GINOX DCT KIFMI DCT ELVOP DCT MUREN DCT CHELY DCT VERSO |
| Aircraft | A319/M-SDE3FGHIRWY/LB1 |
Departure
| Time | 2026-05-07 15:48 |
|---|---|
| Airport | Rome–Fiumicino Leonardo da Vinci International Airport (LIRF) |
Arrival
| Time | 2026-05-07 17:23 |
|---|---|
| Airport | Josep Tarradellas Barcelona-El Prat Airport (LEBL) |
| Time | Latitude | Longitude | Altitude | Speed | Heading |
|---|---|---|---|---|---|
| 2026-05-07 15:35 | 41.79726 | 12.25638 | 20 ft | 0 kts | 291° |
| 2026-05-07 15:39 | 41.79724 | 12.25646 | 18 ft | 4 kts | 298° |
| 2026-05-07 15:39 | 41.79712 | 12.25676 | 18 ft | 4 kts | 309° |
| 2026-05-07 15:39 | 41.79692 | 12.25694 | 18 ft | 4 kts | 1° |
| 2026-05-07 15:39 | 41.79675 | 12.25689 | 18 ft | 1 kts | 24° |
| 2026-05-07 15:40 | 41.79673 | 12.25687 | 20 ft | 0 kts | 24° |
| 2026-05-07 15:42 | 41.79681 | 12.25692 | 18 ft | 4 kts | 24° |
| 2026-05-07 15:42 | 41.79724 | 12.25718 | 18 ft | 10 kts | 24° |
| 2026-05-07 15:42 | 41.79801 | 12.25767 | 20 ft | 15 kts | 26° |
| 2026-05-07 15:43 | 41.79902 | 12.25828 | 18 ft | 16 kts | 358° |
| 2026-05-07 15:43 | 41.79963 | 12.25708 | 18 ft | 17 kts | 295° |
| 2026-05-07 15:43 | 41.80019 | 12.25546 | 19 ft | 21 kts | 296° |
| 2026-05-07 15:43 | 41.80085 | 12.25384 | 19 ft | 19 kts | 321° |
| 2026-05-07 15:44 | 41.80209 | 12.25409 | 18 ft | 19 kts | 21° |
| 2026-05-07 15:44 | 41.80317 | 12.25486 | 16 ft | 18 kts | 52° |
| 2026-05-07 15:44 | 41.80364 | 12.25643 | 17 ft | 19 kts | 70° |
| 2026-05-07 15:44 | 41.80414 | 12.25823 | 13 ft | 21 kts | 69° |
| 2026-05-07 15:45 | 41.80467 | 12.26011 | 15 ft | 22 kts | 70° |
| 2026-05-07 15:45 | 41.80518 | 12.26203 | 14 ft | 22 kts | 70° |
| 2026-05-07 15:45 | 41.80570 | 12.26394 | 17 ft | 21 kts | 71° |
| 2026-05-07 15:45 | 41.80624 | 12.26585 | 13 ft | 23 kts | 70° |
| 2026-05-07 15:46 | 41.80728 | 12.26961 | 8 ft | 12 kts | 69° |
| 2026-05-07 15:46 | 41.80776 | 12.27040 | 9 ft | 11 kts | 18° |
| 2026-05-07 15:46 | 41.80855 | 12.27015 | 10 ft | 12 kts | 340° |
| 2026-05-07 15:47 | 41.80934 | 12.26975 | 10 ft | 12 kts | 335° |
| 2026-05-07 15:47 | 41.80944 | 12.26875 | 11 ft | 15 kts | 249° |
| 2026-05-07 15:47 | 41.80842 | 12.26515 | 14 ft | 78 kts | 250° |
| 2026-05-07 15:47 | 41.80575 | 12.25544 | 12 ft | 142 kts | 250° |
| 2026-05-07 15:48 | 41.80180 | 12.24155 | 353 ft | 164 kts | 250° |
| 2026-05-07 15:48 | 41.79776 | 12.22723 | 1076 ft | 165 kts | 250° |
| 2026-05-07 15:48 | 41.79375 | 12.21268 | 1753 ft | 168 kts | 255° |
| 2026-05-07 15:48 | 41.79271 | 12.19627 | 2173 ft | 186 kts | 270° |
| 2026-05-07 15:49 | 41.79248 | 12.17800 | 2605 ft | 206 kts | 268° |
| 2026-05-07 15:49 | 41.79144 | 12.15878 | 3371 ft | 210 kts | 255° |
| 2026-05-07 15:49 | 41.78424 | 12.14170 | 4121 ft | 215 kts | 225° |
| 2026-05-07 15:49 | 41.77327 | 12.12833 | 4959 ft | 217 kts | 222° |
| 2026-05-07 15:50 | 41.76207 | 12.11465 | 5808 ft | 219 kts | 222° |
| 2026-05-07 15:50 | 41.75085 | 12.10076 | 6635 ft | 221 kts | 223° |
| 2026-05-07 15:50 | 41.73957 | 12.08672 | 7460 ft | 222 kts | 223° |
| 2026-05-07 15:50 | 41.72820 | 12.07257 | 8261 ft | 225 kts | 223° |
| 2026-05-07 15:51 | 41.71661 | 12.05830 | 9047 ft | 227 kts | 220° |
| 2026-05-07 15:51 | 41.70296 | 12.04752 | 9795 ft | 231 kts | 200° |
| 2026-05-07 15:51 | 41.68655 | 12.04341 | 10230 ft | 253 kts | 181° |
| 2026-05-07 15:51 | 41.66806 | 12.04351 | 10598 ft | 277 kts | 180° |
| 2026-05-07 15:52 | 41.64789 | 12.04365 | 10933 ft | 302 kts | 180° |
| 2026-05-07 15:52 | 41.62632 | 12.04059 | 11291 ft | 322 kts | 196° |
| 2026-05-07 15:52 | 41.60582 | 12.02782 | 11980 ft | 330 kts | 214° |
| 2026-05-07 15:52 | 41.58765 | 12.00897 | 12826 ft | 332 kts | 219° |
| 2026-05-07 15:53 | 41.56949 | 11.98969 | 13662 ft | 334 kts | 219° |
| 2026-05-07 15:53 | 41.55120 | 11.97029 | 14437 ft | 337 kts | 219° |
| 2026-05-07 15:53 | 41.53276 | 11.95077 | 15210 ft | 340 kts | 219° |
| 2026-05-07 15:53 | 41.51415 | 11.93111 | 15957 ft | 343 kts | 219° |
| 2026-05-07 15:54 | 41.49540 | 11.91131 | 16689 ft | 345 kts | 219° |
| 2026-05-07 15:54 | 41.47650 | 11.89137 | 17399 ft | 347 kts | 219° |
| 2026-05-07 15:54 | 41.45748 | 11.87134 | 18101 ft | 350 kts | 220° |
| 2026-05-07 15:54 | 41.43831 | 11.85117 | 18779 ft | 352 kts | 220° |
| 2026-05-07 15:55 | 41.41902 | 11.83087 | 19433 ft | 355 kts | 220° |
| 2026-05-07 15:55 | 41.40021 | 11.80947 | 20073 ft | 356 kts | 227° |
| 2026-05-07 15:55 | 41.38478 | 11.78371 | 20696 ft | 357 kts | 238° |
| 2026-05-07 15:55 | 41.37361 | 11.75409 | 21297 ft | 360 kts | 249° |
| 2026-05-07 15:56 | 41.36521 | 11.72259 | 21903 ft | 362 kts | 250° |
| 2026-05-07 15:56 | 41.35670 | 11.69092 | 22487 ft | 365 kts | 250° |
| 2026-05-07 15:56 | 41.34806 | 11.65912 | 23075 ft | 367 kts | 250° |
| 2026-05-07 15:56 | 41.33930 | 11.62710 | 23631 ft | 369 kts | 250° |
| 2026-05-07 15:57 | 41.33048 | 11.59490 | 24170 ft | 371 kts | 250° |
| 2026-05-07 15:57 | 41.32173 | 11.56297 | 24687 ft | 373 kts | 250° |
| 2026-05-07 15:57 | 41.31272 | 11.53003 | 25229 ft | 375 kts | 250° |
| 2026-05-07 15:57 | 41.30395 | 11.49787 | 25746 ft | 375 kts | 250° |
| 2026-05-07 15:58 | 41.29504 | 11.46529 | 26277 ft | 375 kts | 250° |
| 2026-05-07 15:58 | 41.28610 | 11.43266 | 26777 ft | 376 kts | 250° |
| 2026-05-07 15:58 | 41.27716 | 11.40001 | 27269 ft | 376 kts | 250° |
| 2026-05-07 15:58 | 41.26819 | 11.36733 | 27760 ft | 376 kts | 250° |
| 2026-05-07 15:59 | 41.25920 | 11.33461 | 28236 ft | 377 kts | 250° |
| 2026-05-07 15:59 | 41.25017 | 11.30184 | 28705 ft | 378 kts | 250° |
| 2026-05-07 15:59 | 41.24110 | 11.26907 | 29166 ft | 377 kts | 250° |
| 2026-05-07 15:59 | 41.23205 | 11.23637 | 29603 ft | 378 kts | 250° |
| 2026-05-07 16:00 | 41.22298 | 11.20358 | 30029 ft | 378 kts | 250° |
| 2026-05-07 16:00 | 41.21392 | 11.17077 | 30423 ft | 379 kts | 250° |
| 2026-05-07 16:00 | 41.20482 | 11.13793 | 30826 ft | 379 kts | 250° |
| 2026-05-07 16:00 | 41.19568 | 11.10511 | 31214 ft | 379 kts | 250° |
| 2026-05-07 16:01 | 41.18653 | 11.07229 | 31591 ft | 379 kts | 250° |
| 2026-05-07 16:01 | 41.17737 | 11.03951 | 32008 ft | 378 kts | 250° |
| 2026-05-07 16:01 | 41.16825 | 11.00694 | 32531 ft | 374 kts | 250° |
| 2026-05-07 16:01 | 41.15923 | 10.97473 | 33057 ft | 371 kts | 250° |
| 2026-05-07 16:02 | 41.15032 | 10.94278 | 33591 ft | 367 kts | 250° |
| 2026-05-07 16:02 | 41.14153 | 10.91122 | 34146 ft | 362 kts | 250° |
| 2026-05-07 16:02 | 41.13285 | 10.88016 | 34692 ft | 357 kts | 250° |
| 2026-05-07 16:02 | 41.12427 | 10.84946 | 35167 ft | 353 kts | 250° |
| 2026-05-07 16:03 | 41.11579 | 10.81909 | 35600 ft | 350 kts | 250° |
| 2026-05-07 16:03 | 41.10735 | 10.78894 | 36000 ft | 347 kts | 250° |
| 2026-05-07 16:03 | 41.09893 | 10.75903 | 36371 ft | 345 kts | 249° |
| 2026-05-07 16:03 | 41.09053 | 10.72926 | 36710 ft | 344 kts | 249° |
| 2026-05-07 16:04 | 41.08215 | 10.69965 | 36943 ft | 342 kts | 249° |
| 2026-05-07 16:04 | 41.06568 | 10.64158 | 36989 ft | 332 kts | 249° |
| 2026-05-07 16:05 | 41.04958 | 10.58481 | 36989 ft | 327 kts | 249° |
| 2026-05-07 16:05 | 41.03356 | 10.52845 | 36989 ft | 327 kts | 249° |
| 2026-05-07 16:06 | 41.01758 | 10.47214 | 36989 ft | 327 kts | 249° |
| 2026-05-07 16:06 | 41.00154 | 10.41591 | 36990 ft | 326 kts | 249° |
| 2026-05-07 16:07 | 40.98820 | 10.35868 | 36989 ft | 328 kts | 259° |
| 2026-05-07 16:07 | 40.98513 | 10.29825 | 36986 ft | 329 kts | 262° |
| 2026-05-07 16:08 | 40.98221 | 10.23782 | 36983 ft | 329 kts | 262° |
| 2026-05-07 16:08 | 40.97918 | 10.17743 | 36978 ft | 329 kts | 262° |
| 2026-05-07 16:09 | 40.97614 | 10.11696 | 36972 ft | 329 kts | 262° |
| 2026-05-07 16:09 | 40.97304 | 10.05647 | 36968 ft | 330 kts | 262° |
| 2026-05-07 16:10 | 40.97042 | 10.00610 | 36968 ft | 330 kts | 262° |
| 2026-05-07 16:10 | 40.96725 | 9.94546 | 36962 ft | 331 kts | 261° |
| 2026-05-07 16:11 | 40.96414 | 9.88463 | 36959 ft | 332 kts | 261° |
| 2026-05-07 16:11 | 40.96091 | 9.82363 | 36959 ft | 332 kts | 261° |
| 2026-05-07 16:12 | 40.95764 | 9.76256 | 36957 ft | 333 kts | 261° |
| 2026-05-07 16:12 | 40.95435 | 9.70138 | 36958 ft | 334 kts | 261° |
| 2026-05-07 16:13 | 40.95102 | 9.64009 | 36958 ft | 334 kts | 261° |
| 2026-05-07 16:13 | 40.94765 | 9.57875 | 36959 ft | 335 kts | 261° |
| 2026-05-07 16:14 | 40.94422 | 9.51728 | 36960 ft | 335 kts | 261° |
| 2026-05-07 16:14 | 40.94077 | 9.45577 | 36961 ft | 335 kts | 261° |
| 2026-05-07 16:15 | 40.93730 | 9.39424 | 36959 ft | 336 kts | 261° |
| 2026-05-07 16:15 | 40.93375 | 9.33262 | 36959 ft | 336 kts | 261° |
| 2026-05-07 16:16 | 40.93019 | 9.27096 | 36959 ft | 336 kts | 261° |
| 2026-05-07 16:16 | 40.92665 | 9.20923 | 36959 ft | 337 kts | 261° |
| 2026-05-07 16:17 | 40.92305 | 9.14741 | 36961 ft | 337 kts | 261° |
| 2026-05-07 16:17 | 40.91941 | 9.08555 | 36960 ft | 338 kts | 261° |
| 2026-05-07 16:18 | 40.91572 | 9.02364 | 36960 ft | 338 kts | 261° |
| 2026-05-07 16:18 | 40.91194 | 8.96157 | 36963 ft | 339 kts | 261° |
| 2026-05-07 16:19 | 40.90813 | 8.89940 | 36966 ft | 340 kts | 260° |
| 2026-05-07 16:19 | 40.90429 | 8.83710 | 36970 ft | 340 kts | 260° |
| 2026-05-07 16:20 | 40.90046 | 8.77478 | 36970 ft | 340 kts | 260° |
| 2026-05-07 16:20 | 40.89658 | 8.71243 | 36969 ft | 341 kts | 261° |
| 2026-05-07 16:21 | 40.89269 | 8.65043 | 36969 ft | 340 kts | 260° |
| 2026-05-07 16:21 | 40.88873 | 8.58809 | 36967 ft | 341 kts | 260° |
| 2026-05-07 16:22 | 40.88476 | 8.52563 | 36964 ft | 341 kts | 260° |
| 2026-05-07 16:22 | 40.88068 | 8.46324 | 36963 ft | 341 kts | 260° |
| 2026-05-07 16:23 | 40.87659 | 8.40085 | 36963 ft | 341 kts | 260° |
| 2026-05-07 16:23 | 40.87245 | 8.33844 | 36961 ft | 341 kts | 260° |
| 2026-05-07 16:24 | 40.86832 | 8.27606 | 36960 ft | 341 kts | 260° |
| 2026-05-07 16:24 | 40.86418 | 8.21365 | 36959 ft | 341 kts | 260° |
| 2026-05-07 16:25 | 40.85997 | 8.15120 | 36959 ft | 341 kts | 260° |
| 2026-05-07 16:25 | 40.85811 | 8.08842 | 36958 ft | 346 kts | 267° |
| 2026-05-07 16:26 | 40.86114 | 8.02493 | 36958 ft | 346 kts | 267° |
| 2026-05-07 16:26 | 40.86446 | 7.96185 | 36953 ft | 348 kts | 268° |
| 2026-05-07 16:27 | 40.86903 | 7.89807 | 36939 ft | 349 kts | 269° |
| 2026-05-07 16:27 | 40.87377 | 7.83412 | 36935 ft | 350 kts | 268° |
| 2026-05-07 16:28 | 40.87829 | 7.76990 | 36933 ft | 351 kts | 268° |
| 2026-05-07 16:28 | 40.88264 | 7.70556 | 36934 ft | 351 kts | 268° |
| 2026-05-07 16:29 | 40.88693 | 7.64108 | 36934 ft | 352 kts | 268° |
| 2026-05-07 16:29 | 40.89121 | 7.57646 | 36935 ft | 353 kts | 268° |
| 2026-05-07 16:30 | 40.89544 | 7.51178 | 36935 ft | 353 kts | 268° |
| 2026-05-07 16:30 | 40.89966 | 7.44696 | 36936 ft | 354 kts | 268° |
| 2026-05-07 16:31 | 40.90386 | 7.38189 | 36937 ft | 355 kts | 268° |
| 2026-05-07 16:31 | 40.90803 | 7.31672 | 36938 ft | 356 kts | 268° |
| 2026-05-07 16:32 | 40.91221 | 7.25143 | 36940 ft | 357 kts | 268° |
| 2026-05-07 16:32 | 40.91634 | 7.18608 | 36940 ft | 357 kts | 268° |
| 2026-05-07 16:33 | 40.92046 | 7.12070 | 36941 ft | 357 kts | 268° |
| 2026-05-07 16:33 | 40.92449 | 7.05528 | 36941 ft | 357 kts | 268° |
| 2026-05-07 16:34 | 40.92848 | 6.98984 | 36939 ft | 358 kts | 268° |
| 2026-05-07 16:34 | 40.93253 | 6.92423 | 36936 ft | 358 kts | 268° |
| 2026-05-07 16:35 | 40.93651 | 6.85857 | 36937 ft | 358 kts | 268° |
| 2026-05-07 16:35 | 40.94038 | 6.79284 | 36939 ft | 359 kts | 268° |
| 2026-05-07 16:36 | 40.94426 | 6.72692 | 36943 ft | 359 kts | 268° |
| 2026-05-07 16:36 | 40.94813 | 6.66098 | 36942 ft | 360 kts | 268° |
| 2026-05-07 16:37 | 40.95197 | 6.59489 | 36944 ft | 360 kts | 268° |
| 2026-05-07 16:37 | 40.95570 | 6.52910 | 36946 ft | 361 kts | 267° |
| 2026-05-07 16:38 | 40.95945 | 6.46287 | 36946 ft | 361 kts | 268° |
| 2026-05-07 16:38 | 40.96326 | 6.39651 | 36945 ft | 362 kts | 267° |
| 2026-05-07 16:39 | 40.96698 | 6.33012 | 36944 ft | 362 kts | 267° |
| 2026-05-07 16:39 | 40.97072 | 6.26360 | 36944 ft | 363 kts | 267° |
| 2026-05-07 16:40 | 40.97431 | 6.19701 | 36944 ft | 363 kts | 267° |
| 2026-05-07 16:40 | 40.97788 | 6.13025 | 36946 ft | 364 kts | 267° |
| 2026-05-07 16:41 | 40.98148 | 6.06341 | 36952 ft | 364 kts | 267° |
| 2026-05-07 16:41 | 40.98501 | 5.99649 | 36956 ft | 364 kts | 267° |
| 2026-05-07 16:42 | 40.98846 | 5.92950 | 36945 ft | 365 kts | 267° |
| 2026-05-07 16:42 | 40.99191 | 5.86230 | 36938 ft | 366 kts | 267° |
| 2026-05-07 16:43 | 40.99539 | 5.79488 | 36940 ft | 368 kts | 267° |
| 2026-05-07 16:43 | 40.99888 | 5.72722 | 36942 ft | 369 kts | 267° |
| 2026-05-07 16:44 | 41.00221 | 5.65945 | 36942 ft | 369 kts | 267° |
| 2026-05-07 16:44 | 41.00551 | 5.59151 | 36944 ft | 370 kts | 267° |
| 2026-05-07 16:45 | 41.00882 | 5.52341 | 36946 ft | 371 kts | 267° |
| 2026-05-07 16:45 | 41.01205 | 5.45527 | 36948 ft | 371 kts | 267° |
| 2026-05-07 16:46 | 41.01525 | 5.38703 | 36949 ft | 372 kts | 267° |
| 2026-05-07 16:46 | 41.01878 | 5.31870 | 36950 ft | 372 kts | 268° |
| 2026-05-07 16:47 | 41.02249 | 5.25029 | 36951 ft | 372 kts | 268° |
| 2026-05-07 16:47 | 41.02608 | 5.18180 | 36950 ft | 373 kts | 268° |
| 2026-05-07 16:48 | 41.02955 | 5.11330 | 36946 ft | 373 kts | 268° |
| 2026-05-07 16:48 | 41.03305 | 5.04461 | 36948 ft | 374 kts | 268° |
| 2026-05-07 16:49 | 41.03642 | 4.97585 | 36950 ft | 375 kts | 267° |
| 2026-05-07 16:49 | 41.03976 | 4.90696 | 36951 ft | 375 kts | 267° |
| 2026-05-07 16:50 | 41.04310 | 4.83797 | 36950 ft | 376 kts | 267° |
| 2026-05-07 16:50 | 41.04653 | 4.76888 | 36950 ft | 376 kts | 269° |
| 2026-05-07 16:51 | 41.05157 | 4.71141 | 36951 ft | 379 kts | 271° |
| 2026-05-07 16:51 | 41.05541 | 4.67633 | 36738 ft | 391 kts | 272° |
| 2026-05-07 16:51 | 41.05952 | 4.64045 | 36491 ft | 395 kts | 272° |
| 2026-05-07 16:51 | 41.06375 | 4.60452 | 36239 ft | 395 kts | 272° |
| 2026-05-07 16:52 | 41.06794 | 4.56857 | 35991 ft | 395 kts | 272° |
| 2026-05-07 16:52 | 41.07202 | 4.53270 | 35618 ft | 392 kts | 272° |
| 2026-05-07 16:52 | 41.07596 | 4.49716 | 35085 ft | 388 kts | 272° |
| 2026-05-07 16:52 | 41.07978 | 4.46197 | 34555 ft | 384 kts | 271° |
| 2026-05-07 16:53 | 41.08352 | 4.42708 | 34034 ft | 380 kts | 271° |
| 2026-05-07 16:53 | 41.08721 | 4.39255 | 33521 ft | 376 kts | 271° |
| 2026-05-07 16:53 | 41.09084 | 4.35835 | 33021 ft | 373 kts | 271° |
| 2026-05-07 16:53 | 41.09440 | 4.32449 | 32521 ft | 369 kts | 271° |
| 2026-05-07 16:54 | 41.09790 | 4.29092 | 32028 ft | 366 kts | 271° |
| 2026-05-07 16:54 | 41.10140 | 4.25761 | 31547 ft | 363 kts | 271° |
| 2026-05-07 16:54 | 41.10485 | 4.22461 | 31078 ft | 360 kts | 271° |
| 2026-05-07 16:54 | 41.10828 | 4.19184 | 30608 ft | 357 kts | 271° |
| 2026-05-07 16:55 | 41.11167 | 4.15936 | 30148 ft | 354 kts | 271° |
| 2026-05-07 16:55 | 41.11504 | 4.12708 | 29697 ft | 352 kts | 271° |
| 2026-05-07 16:55 | 41.11838 | 4.09501 | 29259 ft | 350 kts | 272° |
| 2026-05-07 16:55 | 41.12169 | 4.06315 | 28822 ft | 348 kts | 272° |
| 2026-05-07 16:56 | 41.12498 | 4.03142 | 28405 ft | 346 kts | 272° |
| 2026-05-07 16:56 | 41.12824 | 3.99995 | 27993 ft | 343 kts | 272° |
| 2026-05-07 16:56 | 41.13462 | 3.93765 | 27206 ft | 338 kts | 272° |
| 2026-05-07 16:57 | 41.13775 | 3.90686 | 26817 ft | 335 kts | 272° |
| 2026-05-07 16:57 | 41.14084 | 3.87648 | 26443 ft | 330 kts | 272° |
| 2026-05-07 16:57 | 41.14392 | 3.84641 | 26073 ft | 328 kts | 272° |
| 2026-05-07 16:57 | 41.14699 | 3.81649 | 25693 ft | 327 kts | 272° |
| 2026-05-07 16:58 | 41.14839 | 3.78668 | 25313 ft | 321 kts | 264° |
| 2026-05-07 16:58 | 41.14587 | 3.75749 | 24937 ft | 317 kts | 255° |
| 2026-05-07 16:58 | 41.13948 | 3.72898 | 24671 ft | 331 kts | 246° |
| 2026-05-07 16:58 | 41.12918 | 3.70132 | 24392 ft | 337 kts | 239° |
| 2026-05-07 16:59 | 41.11754 | 3.67415 | 24108 ft | 339 kts | 239° |
| 2026-05-07 16:59 | 41.10593 | 3.64694 | 23822 ft | 339 kts | 239° |
| 2026-05-07 16:59 | 41.09431 | 3.61971 | 23527 ft | 339 kts | 239° |
| 2026-05-07 16:59 | 41.08273 | 3.59254 | 23244 ft | 338 kts | 239° |
| 2026-05-07 17:00 | 41.07117 | 3.56544 | 22969 ft | 337 kts | 239° |
| 2026-05-07 17:00 | 41.05961 | 3.53838 | 22688 ft | 337 kts | 239° |
| 2026-05-07 17:00 | 41.04809 | 3.51142 | 22404 ft | 336 kts | 239° |
| 2026-05-07 17:00 | 41.03672 | 3.48489 | 22119 ft | 335 kts | 239° |
| 2026-05-07 17:01 | 41.02520 | 3.45806 | 21839 ft | 334 kts | 239° |
| 2026-05-07 17:01 | 41.01371 | 3.43131 | 21563 ft | 334 kts | 239° |
| 2026-05-07 17:01 | 41.00225 | 3.40464 | 21286 ft | 333 kts | 239° |
| 2026-05-07 17:01 | 40.99081 | 3.37806 | 21005 ft | 332 kts | 239° |
| 2026-05-07 17:02 | 40.97936 | 3.35149 | 20726 ft | 332 kts | 239° |
| 2026-05-07 17:02 | 40.96794 | 3.32498 | 20444 ft | 331 kts | 239° |
| 2026-05-07 17:02 | 40.95655 | 3.29854 | 20168 ft | 330 kts | 239° |
| 2026-05-07 17:02 | 40.94518 | 3.27218 | 19895 ft | 330 kts | 239° |
| 2026-05-07 17:03 | 40.93381 | 3.24585 | 19615 ft | 329 kts | 239° |
| 2026-05-07 17:03 | 40.92246 | 3.21958 | 19337 ft | 329 kts | 238° |
| 2026-05-07 17:03 | 40.91111 | 3.19334 | 19054 ft | 328 kts | 238° |
| 2026-05-07 17:03 | 40.89978 | 3.16722 | 18787 ft | 328 kts | 238° |
| 2026-05-07 17:04 | 40.88845 | 3.14112 | 18511 ft | 327 kts | 238° |
| 2026-05-07 17:04 | 40.87848 | 3.11417 | 18246 ft | 328 kts | 251° |
| 2026-05-07 17:04 | 40.87546 | 3.08418 | 17995 ft | 333 kts | 271° |
| 2026-05-07 17:04 | 40.87980 | 3.05406 | 17748 ft | 336 kts | 282° |
| 2026-05-07 17:05 | 40.88559 | 3.02418 | 17498 ft | 335 kts | 282° |
| 2026-05-07 17:05 | 40.89144 | 2.99444 | 17248 ft | 334 kts | 282° |
| 2026-05-07 17:05 | 40.89729 | 2.96482 | 16997 ft | 333 kts | 282° |
| 2026-05-07 17:05 | 40.90329 | 2.93532 | 16746 ft | 332 kts | 285° |
| 2026-05-07 17:06 | 40.91065 | 2.90642 | 16497 ft | 331 kts | 286° |
| 2026-05-07 17:06 | 40.91802 | 2.87764 | 16243 ft | 330 kts | 286° |
| 2026-05-07 17:06 | 40.92531 | 2.84897 | 15997 ft | 328 kts | 286° |
| 2026-05-07 17:06 | 40.93254 | 2.82037 | 15746 ft | 327 kts | 285° |
| 2026-05-07 17:07 | 40.93780 | 2.79132 | 15496 ft | 324 kts | 279° |
| 2026-05-07 17:07 | 40.94215 | 2.76211 | 15245 ft | 323 kts | 279° |
| 2026-05-07 17:07 | 40.94628 | 2.73296 | 14996 ft | 322 kts | 278° |
| 2026-05-07 17:07 | 40.95033 | 2.70391 | 14744 ft | 321 kts | 278° |
| 2026-05-07 17:08 | 40.95436 | 2.67498 | 14494 ft | 319 kts | 279° |
| 2026-05-07 17:08 | 40.95838 | 2.64615 | 14243 ft | 318 kts | 279° |
| 2026-05-07 17:08 | 40.96242 | 2.61743 | 13993 ft | 317 kts | 279° |
| 2026-05-07 17:08 | 40.96646 | 2.58879 | 13744 ft | 315 kts | 279° |
| 2026-05-07 17:09 | 40.97048 | 2.56036 | 13493 ft | 314 kts | 279° |
| 2026-05-07 17:09 | 40.97450 | 2.53199 | 13241 ft | 313 kts | 279° |
| 2026-05-07 17:09 | 40.97851 | 2.50376 | 12992 ft | 312 kts | 279° |
| 2026-05-07 17:09 | 40.98248 | 2.47562 | 12741 ft | 310 kts | 279° |
| 2026-05-07 17:10 | 40.98639 | 2.44759 | 12489 ft | 309 kts | 279° |
| 2026-05-07 17:10 | 40.99029 | 2.41964 | 12237 ft | 308 kts | 279° |
| 2026-05-07 17:10 | 40.99417 | 2.39179 | 11984 ft | 307 kts | 279° |
| 2026-05-07 17:10 | 40.99804 | 2.36405 | 11772 ft | 306 kts | 279° |
| 2026-05-07 17:11 | 41.00190 | 2.33637 | 11544 ft | 306 kts | 280° |
| 2026-05-07 17:11 | 41.00576 | 2.30874 | 11293 ft | 305 kts | 280° |
| 2026-05-07 17:11 | 41.00962 | 2.28122 | 11042 ft | 304 kts | 280° |
| 2026-05-07 17:11 | 41.01346 | 2.25362 | 10795 ft | 304 kts | 280° |
| 2026-05-07 17:12 | 41.01688 | 2.22604 | 10541 ft | 304 kts | 276° |
| 2026-05-07 17:12 | 41.01916 | 2.19828 | 10291 ft | 303 kts | 275° |
| 2026-05-07 17:12 | 41.02102 | 2.17055 | 10040 ft | 302 kts | 275° |
| 2026-05-07 17:12 | 41.02272 | 2.14297 | 9787 ft | 296 kts | 274° |
| 2026-05-07 17:13 | 41.02434 | 2.11599 | 9537 ft | 293 kts | 274° |
| 2026-05-07 17:13 | 41.02597 | 2.08920 | 9286 ft | 291 kts | 275° |
| 2026-05-07 17:13 | 41.02764 | 2.06251 | 9035 ft | 291 kts | 275° |
| 2026-05-07 17:13 | 41.02934 | 2.03582 | 8813 ft | 291 kts | 275° |
| 2026-05-07 17:14 | 41.03107 | 2.00915 | 8585 ft | 290 kts | 275° |
| 2026-05-07 17:14 | 41.03280 | 1.98262 | 8333 ft | 289 kts | 275° |
| 2026-05-07 17:14 | 41.03452 | 1.95619 | 8082 ft | 287 kts | 275° |
| 2026-05-07 17:14 | 41.03621 | 1.93023 | 7832 ft | 286 kts | 275° |
| 2026-05-07 17:15 | 41.03787 | 1.90404 | 7589 ft | 285 kts | 275° |
| 2026-05-07 17:15 | 41.04187 | 1.87848 | 7330 ft | 284 kts | 294° |
| 2026-05-07 17:15 | 41.05178 | 1.85546 | 7082 ft | 284 kts | 302° |
| 2026-05-07 17:15 | 41.06222 | 1.83379 | 6835 ft | 281 kts | 303° |
| 2026-05-07 17:16 | 41.07268 | 1.81235 | 6581 ft | 273 kts | 303° |
| 2026-05-07 17:16 | 41.08517 | 1.79410 | 6326 ft | 264 kts | 324° |
| 2026-05-07 17:16 | 41.10127 | 1.78320 | 6078 ft | 258 kts | 339° |
| 2026-05-07 17:16 | 41.11805 | 1.77483 | 5851 ft | 257 kts | 341° |
| 2026-05-07 17:17 | 41.13461 | 1.76687 | 5625 ft | 249 kts | 341° |
| 2026-05-07 17:17 | 41.15122 | 1.76191 | 5371 ft | 243 kts | 0° |
| 2026-05-07 17:17 | 41.16749 | 1.76613 | 5132 ft | 238 kts | 26° |
| 2026-05-07 17:17 | 41.18070 | 1.77890 | 4929 ft | 235 kts | 50° |
| 2026-05-07 17:18 | 41.19128 | 1.79508 | 4705 ft | 229 kts | 51° |
| 2026-05-07 17:18 | 41.20171 | 1.81103 | 4403 ft | 228 kts | 51° |
| 2026-05-07 17:18 | 41.21055 | 1.82815 | 4079 ft | 226 kts | 64° |
| 2026-05-07 17:18 | 41.21738 | 1.84682 | 3708 ft | 224 kts | 67° |
| 2026-05-07 17:19 | 41.22383 | 1.86555 | 3363 ft | 221 kts | 67° |
| 2026-05-07 17:19 | 41.23012 | 1.88385 | 3047 ft | 216 kts | 68° |
| 2026-05-07 17:19 | 41.23628 | 1.90171 | 2760 ft | 210 kts | 67° |
| 2026-05-07 17:19 | 41.24223 | 1.91897 | 2510 ft | 202 kts | 68° |
| 2026-05-07 17:20 | 41.24798 | 1.93566 | 2272 ft | 194 kts | 67° |
| 2026-05-07 17:20 | 41.25345 | 1.95152 | 1984 ft | 184 kts | 67° |
| 2026-05-07 17:20 | 41.25860 | 1.96648 | 1736 ft | 173 kts | 67° |
| 2026-05-07 17:20 | 41.26344 | 1.98053 | 1532 ft | 162 kts | 67° |
| 2026-05-07 17:21 | 41.26810 | 1.99405 | 1310 ft | 158 kts | 67° |
| 2026-05-07 17:21 | 41.27239 | 2.00651 | 1100 ft | 139 kts | 67° |
| 2026-05-07 17:21 | 41.27624 | 2.01773 | 924 ft | 129 kts | 68° |
| 2026-05-07 17:21 | 41.27992 | 2.02846 | 760 ft | 126 kts | 68° |
| 2026-05-07 17:22 | 41.28353 | 2.03904 | 571 ft | 125 kts | 68° |
| 2026-05-07 17:22 | 41.28719 | 2.04952 | 384 ft | 126 kts | 66° |
| 2026-05-07 17:22 | 41.29079 | 2.06004 | 216 ft | 125 kts | 67° |
| 2026-05-07 17:22 | 41.29439 | 2.07051 | 89 ft | 124 kts | 69° |
| 2026-05-07 17:23 | 41.29778 | 2.08051 | 18 ft | 105 kts | 65° |
| 2026-05-07 17:23 | 41.30009 | 2.08728 | 20 ft | 56 kts | 65° |
| 2026-05-07 17:23 | 41.30124 | 2.09117 | 17 ft | 42 kts | 81° |
| 2026-05-07 17:23 | 41.30131 | 2.09332 | 17 ft | 17 kts | 90° |
| 2026-05-07 17:24 | 41.30074 | 2.09435 | 19 ft | 13 kts | 192° |
| 2026-05-07 17:24 | 41.30022 | 2.09320 | 19 ft | 18 kts | 247° |
| 2026-05-07 17:24 | 41.29956 | 2.09125 | 18 ft | 29 kts | 244° |
| 2026-05-07 17:24 | 41.29870 | 2.08871 | 19 ft | 30 kts | 246° |
| 2026-05-07 17:25 | 41.29783 | 2.08616 | 18 ft | 31 kts | 244° |
| 2026-05-07 17:25 | 41.29692 | 2.08363 | 20 ft | 25 kts | 244° |
| 2026-05-07 17:25 | 41.29603 | 2.08245 | 18 ft | 18 kts | 168° |
| 2026-05-07 17:25 | 41.29482 | 2.08310 | 19 ft | 19 kts | 156° |
| 2026-05-07 17:26 | 41.29377 | 2.08325 | 18 ft | 14 kts | 217° |
| 2026-05-07 17:26 | 41.29329 | 2.08206 | 19 ft | 15 kts | 245° |
| 2026-05-07 17:26 | 41.29284 | 2.08075 | 19 ft | 16 kts | 245° |
| 2026-05-07 17:26 | 41.29237 | 2.07933 | 18 ft | 17 kts | 246° |
| 2026-05-07 17:27 | 41.29194 | 2.07819 | 18 ft | 7 kts | 227° |
| 2026-05-07 17:27 | 41.29147 | 2.07830 | 18 ft | 8 kts | 155° |
| 2026-05-07 17:27 | 41.29116 | 2.07850 | 18 ft | 1 kts | 154° |
| 2026-05-07 17:27 | 41.29115 | 2.07850 | 20 ft | 0 kts | 154° |